Time;durP1;ratioP1;P1;durP2;ratioP2;P2;SDS_P1;SDS_P2;PMS_P1;PMS_P2;Temp;Humidity;BMP_temperature;BMP_pressure;BME280_temperature;BME280_humidity;BME280_pressure;Samples;Min_cycle;Max_cycle;Signal;HPM_P1;HPM_P2
2023/07/07 00:00:50;;;;;;;6.20;4.88;;;19.80;87.70;;;;;;5034783;28;20029;-54
2023/07/07 00:03:36;;;;;;;9.98;4.95;;;19.80;88.00;;;;;;5035557;28;20022;-52
2023/07/07 00:06:22;;;;;;;6.57;4.93;;;19.70;88.70;;;;;;5039063;28;20139;-55
2023/07/07 00:09:08;;;;;;;9.30;5.22;;;19.70;89.30;;;;;;5031625;28;20032;-57
2023/07/07 00:11:54;;;;;;;7.15;4.57;;;19.70;89.50;;;;;;5031559;28;20528;-53
2023/07/07 00:14:40;;;;;;;6.50;5.03;;;19.60;89.30;;;;;;5049997;28;20029;-55
2023/07/07 00:17:26;;;;;;;7.50;4.60;;;19.50;89.30;;;;;;5050304;28;20033;-56
2023/07/07 00:20:14;;;;;;;7.57;4.95;;;19.40;89.60;;;;;;5051481;28;20430;-54
2023/07/07 00:23:00;;;;;;;10.23;5.10;;;19.30;89.10;;;;;;5052665;28;20053;-53
2023/07/07 00:25:58;;;;;;;8.25;5.80;;;19.20;88.80;;;;;;5052296;28;20104;-55
2023/07/07 00:28:44;;;;;;;5.20;4.60;;;19.10;89.00;;;;;;5051761;28;20037;-51
2023/07/07 00:31:30;;;;;;;13.07;6.07;;;19.00;89.20;;;;;;5051389;28;20029;-51
2023/07/07 00:34:16;;;;;;;7.97;4.90;;;18.90;89.30;;;;;;5052966;28;20490;-53
2023/07/07 00:37:02;;;;;;;6.80;4.90;;;18.90;89.00;;;;;;5053588;28;20040;-53
2023/07/07 00:39:48;;;;;;;5.15;4.50;;;18.90;89.20;;;;;;5060006;28;20064;-55
2023/07/07 00:42:34;;;;;;;5.47;4.68;;;19.00;89.10;;;;;;5051360;28;20485;-51
2023/07/07 00:45:21;;;;;;;6.63;4.85;;;19.10;88.90;;;;;;5053619;28;20033;-55
2023/07/07 00:48:11;;;;;;;8.65;4.93;;;19.10;88.80;;;;;;5056530;28;20041;-50
2023/07/07 00:51:03;;;;;;;7.05;4.75;;;19.10;89.00;;;;;;5057431;28;20033;-58
2023/07/07 00:53:51;;;;;;;7.45;4.82;;;19.10;89.30;;;;;;5058384;28;20508;-52
2023/07/07 00:56:42;;;;;;;6.32;4.60;;;19.10;89.50;;;;;;5055609;28;20116;-56
2023/07/07 00:59:35;;;;;;;6.03;4.68;;;19.10;90.10;;;;;;5055579;28;20021;-54
2023/07/07 01:02:25;;;;;;;7.97;5.22;;;19.00;90.50;;;;;;5054112;28;20017;-53
2023/07/07 01:05:11;;;;;;;10.13;5.25;;;19.00;90.60;;;;;;5055460;28;20154;-53
2023/07/07 01:08:02;;;;;;;5.70;4.53;;;18.90;90.80;;;;;;5015644;28;20037;-55
2023/07/07 01:10:47;;;;;;;6.50;5.65;;;18.80;90.80;;;;;;5015838;28;20030;-54
2023/07/07 01:13:34;;;;;;;8.05;5.22;;;18.70;90.60;;;;;;5030873;28;20021;-50
2023/07/07 01:16:47;;;;;;;10.88;5.75;;;18.50;90.80;;;;;;5054260;28;20033;-55
2023/07/07 01:19:45;;;;;;;10.20;5.68;;;18.30;91.20;;;;;;5054287;28;20032;-56
2023/07/07 01:22:45;;;;;;;7.90;5.68;;;18.30;91.40;;;;;;5053964;28;20017;-54
2023/07/07 01:25:57;;;;;;;6.78;5.43;;;18.20;91.50;;;;;;5055036;28;20112;-54
2023/07/07 01:29:18;;;;;;;9.68;6.05;;;18.20;91.40;;;;;;5054083;28;20041;-52
2023/07/07 01:32:06;;;;;;;7.85;5.45;;;18.10;91.30;;;;;;5070114;28;20029;-54
2023/07/07 01:34:56;;;;;;;8.00;5.50;;;18.00;91.70;;;;;;5058978;28;20067;-53
2023/07/07 01:37:59;;;;;;;7.00;5.25;;;17.90;91.30;;;;;;5054261;28;20368;-52
2023/07/07 01:40:54;;;;;;;8.63;5.15;;;17.90;91.30;;;;;;5045852;28;20036;-56
2023/07/07 01:44:04;;;;;;;8.10;5.35;;;17.90;91.50;;;;;;5034711;28;20018;-55
2023/07/07 01:47:09;;;;;;;6.38;4.85;;;17.80;91.50;;;;;;5035258;28;20030;-54
2023/07/07 01:49:59;;;;;;;9.63;5.30;;;17.70;91.40;;;;;;5034449;28;20112;-53
2023/07/07 01:52:47;;;;;;;9.23;5.40;;;17.50;91.60;;;;;;5033284;28;20039;-54
2023/07/07 01:55:37;;;;;;;9.85;5.45;;;17.50;91.80;;;;;;5032534;28;20034;-55
2023/07/07 01:58:26;;;;;;;6.82;5.03;;;17.40;92.00;;;;;;5032352;28;20025;-55
2023/07/07 02:01:12;;;;;;;8.18;5.40;;;17.40;92.00;;;;;;5035163;28;20033;-53
2023/07/07 02:03:58;;;;;;;7.18;5.10;;;17.30;91.90;;;;;;5035108;28;20029;-51
2023/07/07 02:06:44;;;;;;;7.03;5.20;;;17.30;92.10;;;;;;5039210;28;20048;-55
2023/07/07 02:09:30;;;;;;;5.38;4.78;;;17.30;92.20;;;;;;5035946;28;20112;-57
2023/07/07 02:12:16;;;;;;;8.35;5.75;;;17.30;92.40;;;;;;5038045;28;20034;-54
2023/07/07 02:15:02;;;;;;;8.30;4.90;;;17.40;92.30;;;;;;5045483;28;20068;-53
2023/07/07 02:17:49;;;;;;;7.60;4.88;;;17.30;92.40;;;;;;5042561;28;20521;-54
2023/07/07 02:20:35;;;;;;;7.05;5.35;;;17.30;92.70;;;;;;5034883;28;20505;-54
2023/07/07 02:23:21;;;;;;;8.50;5.45;;;17.20;93.00;;;;;;5034506;28;20458;-56
2023/07/07 02:26:06;;;;;;;7.72;5.65;;;17.10;93.20;;;;;;5034960;28;20030;-54
2023/07/07 02:28:52;;;;;;;6.10;4.75;;;17.20;93.20;;;;;;5033475;28;20065;-56
2023/07/07 02:31:38;;;;;;;8.13;5.28;;;17.20;93.30;;;;;;5033638;28;20060;-55
2023/07/07 02:34:24;;;;;;;7.63;4.78;;;17.20;93.20;;;;;;5033062;28;20025;-56
2023/07/07 02:37:12;;;;;;;7.78;5.68;;;17.10;93.00;;;;;;5034478;28;20510;-54
2023/07/07 02:39:58;;;;;;;9.23;5.05;;;17.10;93.10;;;;;;5033000;28;20414;-52
2023/07/07 02:42:46;;;;;;;8.98;5.00;;;17.00;93.20;;;;;;5033955;28;20018;-54
2023/07/07 02:45:33;;;;;;;6.30;5.28;;;16.90;93.30;;;;;;5033329;28;20055;-50
2023/07/07 02:48:20;;;;;;;6.63;4.72;;;16.90;93.60;;;;;;5032711;28;20095;-50
2023/07/07 02:51:06;;;;;;;6.55;5.28;;;16.90;93.60;;;;;;5039321;28;20034;-54
2023/07/07 02:53:52;;;;;;;6.45;4.68;;;16.90;93.80;;;;;;5051548;28;20028;-54
2023/07/07 02:56:38;;;;;;;7.22;4.78;;;16.90;93.30;;;;;;5036045;28;20140;-53
2023/07/07 02:59:24;;;;;;;10.20;5.20;;;16.80;93.20;;;;;;5035414;28;20029;-53
2023/07/07 03:02:10;;;;;;;6.70;5.13;;;16.80;93.00;;;;;;5033913;28;20076;-51
2023/07/07 03:04:56;;;;;;;11.38;5.05;;;16.70;92.80;;;;;;5033835;28;20037;-54
2023/07/07 03:07:42;;;;;;;9.23;5.25;;;16.70;92.70;;;;;;5032814;28;20378;-53
2023/07/07 03:10:31;;;;;;;8.80;5.03;;;16.70;92.90;;;;;;5033314;28;20022;-56
2023/07/07 03:13:17;;;;;;;7.45;5.82;;;16.60;92.80;;;;;;5032735;28;20490;-53
2023/07/07 03:16:12;;;;;;;8.10;5.15;;;16.70;93.10;;;;;;5032416;28;20490;-54
2023/07/07 03:19:04;;;;;;;6.47;5.00;;;16.60;93.10;;;;;;5032632;28;20033;-51
2023/07/07 03:21:54;;;;;;;7.97;5.15;;;16.50;93.90;;;;;;5034164;28;20024;-54
2023/07/07 03:24:40;;;;;;;9.85;5.20;;;16.40;94.10;;;;;;5033686;28;20017;-50
2023/07/07 03:27:26;;;;;;;5.78;4.57;;;16.30;94.20;;;;;;5033044;28;20486;-54
2023/07/07 03:30:12;;;;;;;10.25;5.13;;;16.40;94.30;;;;;;5034588;28;20402;-51
2023/07/07 03:32:58;;;;;;;8.25;5.40;;;16.40;94.30;;;;;;5035230;28;20375;-53
2023/07/07 03:35:44;;;;;;;8.45;5.45;;;16.40;94.20;;;;;;5032982;28;20034;-54
2023/07/07 03:38:30;;;;;;;8.18;5.10;;;16.50;94.10;;;;;;5033289;28;20123;-55
2023/07/07 03:41:21;;;;;;;5.85;4.75;;;16.40;94.10;;;;;;5033945;28;20371;-51
2023/07/07 03:44:07;;;;;;;7.20;4.95;;;16.50;94.00;;;;;;5032548;28;20087;-52
2023/07/07 03:46:53;;;;;;;7.78;5.10;;;16.40;93.80;;;;;;5031276;28;20042;-51
2023/07/07 03:49:39;;;;;;;5.95;5.05;;;16.50;93.80;;;;;;5031959;28;20036;-52
2023/07/07 03:52:25;;;;;;;7.32;5.28;;;16.40;93.60;;;;;;5032234;28;20222;-50
2023/07/07 03:55:11;;;;;;;6.55;5.38;;;16.40;93.60;;;;;;5032170;28;20041;-52
2023/07/07 03:57:57;;;;;;;6.88;5.55;;;16.40;93.80;;;;;;5011944;28;20052;-52
2023/07/07 04:00:45;;;;;;;7.70;5.93;;;16.40;93.80;;;;;;5012587;28;20033;-53
2023/07/07 04:03:32;;;;;;;7.10;5.18;;;16.20;94.00;;;;;;5013273;28;20560;-52
2023/07/07 04:06:19;;;;;;;7.25;5.07;;;16.20;94.10;;;;;;5017073;28;20022;-54
2023/07/07 04:09:04;;;;;;;6.82;5.05;;;16.30;94.10;;;;;;5013799;28;20447;-54
2023/07/07 04:11:50;;;;;;;6.68;5.13;;;16.40;94.40;;;;;;5012377;28;20458;-53
2023/07/07 04:14:36;;;;;;;8.98;5.35;;;16.50;94.10;;;;;;5012213;28;20029;-54
2023/07/07 04:17:22;;;;;;;7.95;5.65;;;16.60;94.10;;;;;;5012248;28;20507;-55
2023/07/07 04:20:09;;;;;;;8.00;5.47;;;16.70;93.50;;;;;;5011179;28;20179;-55
2023/07/07 04:22:55;;;;;;;7.32;5.45;;;16.70;93.50;;;;;;5011651;28;20030;-55
2023/07/07 04:25:44;;;;;;;5.78;5.18;;;16.70;93.70;;;;;;5012024;28;20057;-52
2023/07/07 04:28:31;;;;;;;8.13;5.00;;;16.70;93.90;;;;;;5015180;28;20056;-56
2023/07/07 04:31:18;;;;;;;7.20;6.43;;;16.70;93.70;;;;;;5028180;28;20019;-54
2023/07/07 04:34:04;;;;;;;10.43;7.38;;;16.90;93.80;;;;;;5016554;28;20030;-53
2023/07/07 04:36:49;;;;;;;10.75;5.90;;;16.90;93.30;;;;;;5012423;28;20026;-52
2023/07/07 04:39:35;;;;;;;6.18;4.78;;;17.00;93.50;;;;;;5013369;28;20057;-54
2023/07/07 04:42:21;;;;;;;6.68;5.07;;;16.90;93.20;;;;;;5012163;28;20133;-52
2023/07/07 04:45:08;;;;;;;7.35;5.38;;;16.90;93.60;;;;;;5011833;28;20030;-52
2023/07/07 04:47:54;;;;;;;7.97;5.28;;;17.00;93.70;;;;;;5012684;28;20395;-54
2023/07/07 04:50:40;;;;;;;6.72;5.32;;;17.10;93.30;;;;;;5011939;28;20104;-51
2023/07/07 04:53:28;;;;;;;8.23;5.03;;;17.00;93.10;;;;;;5012396;28;20029;-53
2023/07/07 04:56:18;;;;;;;6.55;5.13;;;16.90;93.10;;;;;;5011529;28;20109;-55
2023/07/07 04:59:06;;;;;;;6.28;5.03;;;17.10;93.10;;;;;;5011618;28;20034;-51
2023/07/07 05:01:52;;;;;;;9.45;5.40;;;17.10;93.00;;;;;;5012365;28;20387;-55
2023/07/07 05:04:38;;;;;;;5.97;4.72;;;17.10;93.00;;;;;;5011602;28;20026;-55
2023/07/07 05:07:28;;;;;;;8.10;4.60;;;17.20;93.40;;;;;;5013809;28;20058;-54
2023/07/07 05:10:14;;;;;;;7.93;4.95;;;17.20;93.00;;;;;;5015811;28;20038;-52
2023/07/07 05:13:00;;;;;;;9.73;5.65;;;17.30;92.90;;;;;;5017376;28;20051;-52
2023/07/07 05:15:46;;;;;;;11.13;7.03;;;17.40;93.00;;;;;;5032258;28;20033;-53
2023/07/07 05:18:32;;;;;;;10.38;6.07;;;17.50;92.90;;;;;;5031719;28;20037;-51
2023/07/07 05:21:20;;;;;;;7.00;5.13;;;17.60;92.80;;;;;;5032094;28;20037;-51
2023/07/07 05:24:06;;;;;;;7.40;5.38;;;17.70;92.70;;;;;;5031855;28;20626;-51
2023/07/07 05:26:52;;;;;;;8.50;5.90;;;17.80;92.60;;;;;;5031373;28;20053;-53
2023/07/07 05:29:38;;;;;;;7.72;5.30;;;18.00;92.30;;;;;;5032076;28;20034;-51
2023/07/07 05:32:24;;;;;;;12.35;5.20;;;18.10;92.30;;;;;;5044609;28;20037;-54
2023/07/07 05:35:10;;;;;;;7.38;5.75;;;18.00;92.50;;;;;;5043537;28;20033;-54
2023/07/07 05:37:56;;;;;;;9.63;5.53;;;18.10;92.40;;;;;;5034830;28;20041;-51
2023/07/07 05:40:43;;;;;;;8.43;5.68;;;18.30;92.40;;;;;;5035072;28;20416;-51
2023/07/07 05:43:29;;;;;;;10.90;5.80;;;18.30;92.40;;;;;;5034653;28;20105;-55
2023/07/07 05:46:16;;;;;;;7.72;5.75;;;18.50;92.30;;;;;;5035019;28;20029;-51
2023/07/07 05:49:02;;;;;;;9.15;5.75;;;18.60;92.10;;;;;;5035175;28;20049;-50
2023/07/07 05:51:48;;;;;;;6.85;5.28;;;18.70;92.20;;;;;;5034450;28;20072;-53
2023/07/07 05:54:34;;;;;;;10.70;8.45;;;18.70;92.20;;;;;;5034866;28;20034;-53
2023/07/07 05:57:20;;;;;;;16.55;6.25;;;18.90;91.90;;;;;;5033957;28;20034;-52
2023/07/07 06:00:08;;;;;;;11.63;6.72;;;18.90;91.80;;;;;;5033553;28;20042;-55
2023/07/07 06:02:57;;;;;;;7.97;5.55;;;19.00;91.80;;;;;;5034343;28;20034;-52
2023/07/07 06:05:44;;;;;;;8.32;5.15;;;19.20;91.60;;;;;;5037632;28;20116;-54
2023/07/07 06:08:30;;;;;;;7.72;5.47;;;19.30;91.50;;;;;;5045029;28;20033;-57
2023/07/07 06:11:16;;;;;;;11.13;4.78;;;19.40;91.30;;;;;;5035457;28;20113;-56
2023/07/07 06:14:02;;;;;;;6.35;5.13;;;19.50;91.20;;;;;;5035945;28;20441;-56
2023/07/07 06:16:48;;;;;;;6.55;5.57;;;19.60;91.00;;;;;;5031718;28;20033;-57
2023/07/07 06:19:34;;;;;;;11.27;6.07;;;19.70;90.80;;;;;;5032391;28;20045;-58
2023/07/07 06:22:20;;;;;;;6.05;5.10;;;19.80;90.70;;;;;;5033626;28;20029;-54
2023/07/07 06:25:06;;;;;;;7.68;5.22;;;19.90;90.10;;;;;;5033266;28;20502;-54
2023/07/07 06:27:52;;;;;;;8.35;5.80;;;20.00;89.60;;;;;;5033932;28;20124;-54
2023/07/07 06:30:38;;;;;;;7.75;4.97;;;20.10;88.80;;;;;;5032429;28;20029;-56
2023/07/07 06:33:25;;;;;;;6.20;5.15;;;20.20;87.80;;;;;;5033319;28;20087;-54
2023/07/07 06:36:11;;;;;;;8.07;4.75;;;20.30;87.30;;;;;;5034496;28;20025;-52
2023/07/07 06:38:57;;;;;;;8.52;5.03;;;20.50;86.90;;;;;;5033855;28;20041;-53
2023/07/07 06:41:43;;;;;;;8.57;4.80;;;20.50;85.80;;;;;;5033200;28;20084;-53
2023/07/07 06:44:29;;;;;;;9.32;5.20;;;20.70;85.90;;;;;;5040541;28;20408;-56
2023/07/07 06:47:16;;;;;;;12.30;5.03;;;20.70;85.60;;;;;;5049573;28;20029;-53
2023/07/07 06:50:03;;;;;;;7.32;4.47;;;20.70;85.50;;;;;;5037836;28;20052;-56
2023/07/07 06:52:48;;;;;;;5.45;4.35;;;20.80;85.10;;;;;;5036487;28;20445;-55
2023/07/07 06:55:34;;;;;;;6.97;4.68;;;20.90;84.60;;;;;;5034135;28;20572;-53
2023/07/07 06:58:22;;;;;;;6.25;4.68;;;21.00;84.10;;;;;;5033497;28;20033;-52
2023/07/07 07:01:11;;;;;;;12.75;4.75;;;21.10;83.90;;;;;;5034759;28;20136;-52
2023/07/07 07:04:00;;;;;;;8.85;4.80;;;21.10;83.80;;;;;;5033370;28;20037;-54
2023/07/07 07:06:46;;;;;;;6.60;4.80;;;21.20;83.70;;;;;;5033893;28;20034;-55
2023/07/07 07:09:32;;;;;;;8.13;5.10;;;21.30;83.50;;;;;;5033137;28;20029;-54
2023/07/07 07:12:18;;;;;;;7.22;4.40;;;21.40;84.10;;;;;;5032770;28;20120;-55
2023/07/07 07:15:04;;;;;;;5.47;4.50;;;21.50;83.10;;;;;;5034110;28;20454;-54
2023/07/07 07:17:50;;;;;;;5.32;4.45;;;21.50;83.30;;;;;;5033429;28;20041;-54
2023/07/07 07:20:36;;;;;;;5.13;4.50;;;21.60;83.40;;;;;;5032939;28;20510;-55
2023/07/07 07:23:22;;;;;;;5.10;4.35;;;21.80;83.10;;;;;;5041781;28;20080;-57
2023/07/07 07:26:08;;;;;;;7.05;4.43;;;21.90;83.00;;;;;;5041243;28;20029;-55
2023/07/07 07:28:54;;;;;;;11.80;6.10;;;21.90;82.70;;;;;;5035624;28;20482;-53
2023/07/07 07:31:41;;;;;;;6.95;5.03;;;22.00;82.50;;;;;;5035236;28;20029;-57
2023/07/07 07:34:30;;;;;;;5.38;4.10;;;22.00;82.20;;;;;;5039098;28;20099;-54
2023/07/07 07:37:16;;;;;;;8.73;5.28;;;22.10;81.70;;;;;;5037657;28;20038;-54
2023/07/07 07:40:02;;;;;;;5.35;4.43;;;22.20;80.90;;;;;;5034509;28;20121;-57
2023/07/07 07:42:48;;;;;;;8.48;5.63;;;22.20;81.00;;;;;;5031893;28;20032;-57
2023/07/07 07:45:36;;;;;;;5.25;4.38;;;22.20;80.50;;;;;;5033182;28;20025;-55
2023/07/07 07:48:22;;;;;;;7.35;4.10;;;22.40;79.80;;;;;;5032582;28;20044;-57
2023/07/07 07:51:08;;;;;;;5.15;4.55;;;22.50;79.80;;;;;;5033361;28;20041;-56
2023/07/07 07:53:54;;;;;;;7.35;4.85;;;22.60;79.40;;;;;;5032620;28;20035;-55
2023/07/07 07:56:40;;;;;;;6.88;4.30;;;22.70;78.90;;;;;;5032656;28;20045;-54
2023/07/07 07:59:26;;;;;;;5.72;3.63;;;22.80;78.40;;;;;;5032704;28;20044;-50
2023/07/07 08:02:12;;;;;;;9.98;4.68;;;22.90;77.40;;;;;;5032403;28;20034;-51
2023/07/07 08:04:58;;;;;;;6.10;4.00;;;22.90;77.30;;;;;;5032691;28;20026;-53
2023/07/07 08:07:44;;;;;;;4.75;3.78;;;23.00;77.80;;;;;;5034721;28;20039;-61
2023/07/07 08:10:30;;;;;;;7.00;4.47;;;23.00;77.00;;;;;;5032923;28;20087;-53
2023/07/07 08:13:16;;;;;;;6.95;4.15;;;23.10;76.80;;;;;;5032664;28;20124;-57
2023/07/07 08:16:02;;;;;;;7.88;3.88;;;23.30;77.10;;;;;;5033012;28;20041;-54
2023/07/07 08:18:48;;;;;;;7.13;3.83;;;23.40;76.50;;;;;;5033012;28;20120;-53
2023/07/07 08:21:35;;;;;;;8.55;4.70;;;23.50;76.00;;;;;;5033155;28;20065;-55
2023/07/07 08:24:21;;;;;;;6.20;4.40;;;23.50;75.70;;;;;;5032640;28;20034;-57
2023/07/07 08:27:08;;;;;;;10.25;3.95;;;23.60;75.60;;;;;;5032862;28;20112;-54
2023/07/07 08:29:54;;;;;;;6.88;4.75;;;23.70;74.40;;;;;;5032853;28;20021;-55
2023/07/07 08:32:40;;;;;;;6.47;5.65;;;23.70;74.10;;;;;;5032579;28;20104;-58
2023/07/07 08:35:26;;;;;;;7.20;3.88;;;23.80;74.40;;;;;;5035088;28;20513;-54
2023/07/07 08:38:12;;;;;;;7.45;4.07;;;23.80;74.50;;;;;;5036741;28;20041;-55
2023/07/07 08:40:58;;;;;;;7.50;4.28;;;23.80;74.40;;;;;;5034713;28;20489;-53
2023/07/07 08:43:44;;;;;;;6.22;3.75;;;24.00;74.20;;;;;;5032650;28;20022;-54
2023/07/07 08:46:36;;;;;;;7.05;3.80;;;24.10;74.60;;;;;;5032819;28;20497;-54
2023/07/07 08:49:31;;;;;;;4.60;3.75;;;24.20;73.80;;;;;;5031243;28;20138;-54
2023/07/07 08:52:47;;;;;;;5.47;3.90;;;24.30;73.00;;;;;;5031194;28;20022;-53
2023/07/07 08:55:47;;;;;;;6.15;3.80;;;24.50;72.60;;;;;;5030918;28;20367;-52
2023/07/07 08:58:57;;;;;;;7.85;4.30;;;24.60;72.20;;;;;;5034013;28;20033;-55
2023/07/07 09:02:25;;;;;;;5.18;4.20;;;24.70;72.00;;;;;;5041175;28;20018;-55
2023/07/07 09:05:52;;;;;;;7.07;3.90;;;24.90;71.40;;;;;;5033423;28;20125;-55
2023/07/07 09:09:17;;;;;;;7.13;3.90;;;24.90;71.10;;;;;;5030049;28;20155;-54
2023/07/07 09:12:03;;;;;;;5.40;3.60;;;25.10;70.60;;;;;;5027157;28;20029;-55
2023/07/07 09:14:51;;;;;;;6.03;3.83;;;25.10;71.00;;;;;;5035621;28;20022;-55
2023/07/07 09:17:42;;;;;;;6.78;4.30;;;25.20;70.80;;;;;;5036439;28;20033;-55
2023/07/07 09:20:32;;;;;;;6.85;4.13;;;25.20;70.50;;;;;;5036808;28;20382;-54
2023/07/07 09:23:23;;;;;;;6.45;4.20;;;25.30;70.00;;;;;;5034631;28;20021;-56
2023/07/07 09:26:22;;;;;;;8.10;4.32;;;25.30;69.10;;;;;;5035146;28;20095;-54
2023/07/07 09:29:19;;;;;;;8.73;4.45;;;25.30;69.60;;;;;;5036321;28;20065;-54
2023/07/07 09:32:05;;;;;;;5.35;3.88;;;25.30;70.30;;;;;;5035520;28;20116;-56
2023/07/07 09:34:52;;;;;;;11.35;4.20;;;25.30;69.70;;;;;;5036407;28;20037;-57
2023/07/07 09:37:47;;;;;;;7.60;3.78;;;25.20;68.00;;;;;;5045431;28;20021;-56
2023/07/07 09:40:50;;;;;;;6.93;4.43;;;25.30;67.60;;;;;;5041153;28;20022;-55
2023/07/07 09:43:59;;;;;;;9.27;4.28;;;25.50;67.40;;;;;;5036150;28;20060;-56
2023/07/07 09:47:05;;;;;;;7.70;4.20;;;25.50;67.50;;;;;;5026489;28;20083;-56
2023/07/07 09:50:18;;;;;;;4.45;3.85;;;25.60;67.90;;;;;;5034650;28;20487;-55
2023/07/07 09:53:15;;;;;;;5.95;3.58;;;25.70;67.60;;;;;;5034482;28;20022;-56
2023/07/07 09:56:03;;;;;;;5.20;3.88;;;25.80;67.20;;;;;;5034888;28;20485;-54
2023/07/07 09:58:57;;;;;;;4.93;3.88;;;26.00;66.10;;;;;;5035082;28;20052;-55
2023/07/07 10:01:48;;;;;;;5.30;4.15;;;26.10;65.80;;;;;;5034206;28;20029;-54
2023/07/07 10:04:35;;;;;;;5.57;3.92;;;26.00;65.10;;;;;;5036015;28;20030;-56
2023/07/07 10:07:22;;;;;;;5.70;4.07;;;26.00;65.40;;;;;;5039332;28;20053;-56
2023/07/07 10:10:13;;;;;;;5.88;3.67;;;26.20;66.80;;;;;;5037099;28;20043;-51
2023/07/07 10:12:59;;;;;;;6.93;4.18;;;26.20;66.10;;;;;;5034220;28;20112;-56
2023/07/07 10:15:50;;;;;;;6.40;4.03;;;26.20;66.90;;;;;;5034837;28;20607;-56
2023/07/07 10:18:37;;;;;;;4.78;3.55;;;26.40;66.20;;;;;;5032627;28;20397;-54
2023/07/07 10:21:23;;;;;;;8.95;3.85;;;26.50;66.00;;;;;;5033786;28;20417;-57
2023/07/07 10:24:14;;;;;;;9.10;4.57;;;26.50;65.30;;;;;;5033448;28;20026;-54
2023/07/07 10:27:00;;;;;;;4.35;3.75;;;26.40;64.10;;;;;;5034737;28;20021;-56
2023/07/07 10:29:47;;;;;;;5.03;4.32;;;26.50;64.30;;;;;;5033880;28;20119;-54
2023/07/07 10:32:34;;;;;;;6.75;3.80;;;26.50;64.80;;;;;;5035175;28;20026;-52
2023/07/07 10:35:23;;;;;;;6.57;3.75;;;26.60;64.10;;;;;;5034981;28;20029;-54
2023/07/07 10:38:11;;;;;;;5.82;3.90;;;26.60;64.50;;;;;;5033148;28;20034;-54
2023/07/07 10:40:58;;;;;;;4.80;3.63;;;26.80;64.40;;;;;;5033942;28;20079;-56
2023/07/07 10:43:44;;;;;;;8.00;3.70;;;26.80;63.40;;;;;;5033750;28;20087;-58
2023/07/07 10:46:30;;;;;;;7.75;4.60;;;26.80;63.30;;;;;;5034797;28;20037;-54
2023/07/07 10:49:19;;;;;;;5.85;3.97;;;26.80;63.40;;;;;;5033214;28;20112;-54
2023/07/07 10:52:20;;;;;;;6.88;4.03;;;26.90;62.90;;;;;;5033450;28;20091;-56
2023/07/07 10:55:21;;;;;;;7.97;4.30;;;27.00;62.80;;;;;;5033357;28;20304;-57
2023/07/07 10:58:29;;;;;;;8.48;4.32;;;26.90;63.20;;;;;;5032753;28;20053;-57
2023/07/07 11:01:32;;;;;;;4.53;3.97;;;26.90;63.00;;;;;;5032941;28;20145;-53
2023/07/07 11:04:41;;;;;;;24.65;6.68;;;26.80;62.50;;;;;;5033185;28;20105;-56
2023/07/07 11:07:48;;;;;;;7.40;3.80;;;26.80;61.70;;;;;;5033680;28;20405;-56
2023/07/07 11:11:00;;;;;;;5.75;3.55;;;26.70;61.80;;;;;;5036075;28;20029;-55
2023/07/07 11:14:01;;;;;;;5.40;3.65;;;26.60;60.90;;;;;;5039232;28;20417;-55
2023/07/07 11:17:10;;;;;;;4.25;3.60;;;26.70;62.20;;;;;;5037169;28;20040;-55
2023/07/07 11:20:14;;;;;;;5.05;3.80;;;26.70;62.10;;;;;;5035717;28;20112;-55
2023/07/07 11:23:14;;;;;;;6.20;4.00;;;26.90;60.50;;;;;;5036193;28;20082;-55
2023/07/07 11:26:00;;;;;;;5.65;3.60;;;26.90;62.00;;;;;;5034293;28;20494;-53
2023/07/07 11:29:02;;;;;;;12.70;4.32;;;27.00;61.30;;;;;;5032298;28;20041;-55
2023/07/07 11:32:08;;;;;;;7.80;3.85;;;27.00;61.60;;;;;;5032583;28;20059;-55
2023/07/07 11:35:18;;;;;;;11.65;4.10;;;26.90;60.90;;;;;;5032826;28;20034;-53
2023/07/07 11:38:16;;;;;;;7.13;3.60;;;26.80;60.80;;;;;;5032295;28;20021;-54
2023/07/07 11:41:11;;;;;;;7.15;3.95;;;26.80;61.70;;;;;;5033944;28;20484;-56
2023/07/07 11:44:34;;;;;;;8.75;3.80;;;27.00;61.70;;;;;;5032258;28;20041;-56
2023/07/07 11:47:36;;;;;;;6.25;3.67;;;27.30;61.70;;;;;;5031808;28;20558;-54
2023/07/07 11:50:32;;;;;;;5.82;4.22;;;27.50;61.60;;;;;;5037173;28;20112;-56
2023/07/07 11:53:35;;;;;;;7.32;3.92;;;27.60;61.40;;;;;;5047325;28;20299;-55
2023/07/07 11:56:46;;;;;;;6.53;3.97;;;27.50;60.70;;;;;;5033663;28;20034;-55
2023/07/07 11:59:55;;;;;;;5.97;3.95;;;27.50;61.20;;;;;;5032631;28;20033;-56
2023/07/07 12:02:45;;;;;;;6.95;3.70;;;27.50;60.70;;;;;;5032858;28;20029;-56
2023/07/07 12:05:36;;;;;;;4.30;3.42;;;27.60;60.60;;;;;;5034410;28;20018;-55
2023/07/07 12:08:36;;;;;;;6.07;3.80;;;27.60;60.50;;;;;;5033995;28;20521;-51
2023/07/07 12:11:23;;;;;;;5.43;4.38;;;27.70;59.80;;;;;;5033596;28;20029;-55
2023/07/07 12:14:33;;;;;;;8.88;5.88;;;27.80;59.00;;;;;;5031768;28;20033;-52
2023/07/07 12:17:26;;;;;;;5.78;3.92;;;27.80;58.70;;;;;;5032972;28;20025;-57
2023/07/07 12:20:28;;;;;;;5.75;3.95;;;27.80;58.80;;;;;;5031222;28;20034;-52
2023/07/07 12:23:19;;;;;;;6.72;3.97;;;28.00;59.90;;;;;;5033367;28;20091;-51
2023/07/07 12:26:22;;;;;;;5.38;4.22;;;28.00;60.30;;;;;;5032994;28;20026;-57
2023/07/07 12:29:13;;;;;;;7.15;4.40;;;28.10;60.20;;;;;;5031278;28;20041;-56
2023/07/07 12:31:59;;;;;;;5.53;4.05;;;28.20;60.20;;;;;;5032829;28;20091;-52
2023/07/07 12:34:50;;;;;;;8.27;4.03;;;28.30;59.60;;;;;;5033129;28;20030;-55
2023/07/07 12:37:36;;;;;;;6.88;4.43;;;28.50;59.10;;;;;;5032495;28;20036;-55
2023/07/07 12:40:23;;;;;;;7.43;3.90;;;28.50;58.50;;;;;;5031261;28;20026;-56
2023/07/07 12:43:31;;;;;;;7.35;3.63;;;28.60;58.50;;;;;;5036356;28;20045;-55
2023/07/07 12:46:17;;;;;;;5.03;4.18;;;28.50;57.40;;;;;;5039140;28;20272;-55
2023/07/07 12:49:25;;;;;;;5.82;3.80;;;28.60;58.30;;;;;;5039452;28;20410;-56
2023/07/07 12:52:12;;;;;;;7.03;3.85;;;28.80;58.30;;;;;;5039284;28;20091;-56
2023/07/07 12:55:19;;;;;;;4.25;3.85;;;28.90;58.10;;;;;;5038111;28;20057;-56
2023/07/07 12:58:05;;;;;;;6.15;3.95;;;28.90;57.70;;;;;;5038852;28;20108;-57
2023/07/07 13:01:09;;;;;;;8.07;6.40;;;28.90;57.50;;;;;;5037697;28;20049;-55
2023/07/07 13:04:07;;;;;;;6.43;4.18;;;28.90;57.20;;;;;;5039332;28;20083;-54
2023/07/07 13:06:59;;;;;;;5.90;4.10;;;29.00;57.50;;;;;;5037648;28;20036;-57
2023/07/07 13:09:49;;;;;;;6.65;3.65;;;29.30;58.30;;;;;;5037548;28;20035;-57
2023/07/07 13:12:45;;;;;;;8.45;4.20;;;29.40;57.30;;;;;;5037964;28;20037;-54
2023/07/07 13:15:31;;;;;;;5.53;3.90;;;29.70;57.10;;;;;;5038166;28;20029;-54
2023/07/07 13:18:17;;;;;;;7.10;4.03;;;29.90;56.20;;;;;;5037638;28;20038;-58
2023/07/07 13:21:04;;;;;;;5.68;4.07;;;29.90;56.90;;;;;;5037865;28;20043;-56
2023/07/07 13:23:51;;;;;;;7.45;4.10;;;30.00;56.90;;;;;;5039157;28;20053;-53
2023/07/07 13:26:37;;;;;;;8.38;3.90;;;30.20;56.40;;;;;;5039816;28;20061;-56
2023/07/07 13:29:26;;;;;;;5.18;3.60;;;30.10;55.60;;;;;;5040943;28;20187;-56
2023/07/07 13:32:28;;;;;;;7.38;4.07;;;30.20;55.90;;;;;;5040257;28;20044;-53
2023/07/07 13:35:15;;;;;;;5.35;4.10;;;30.40;54.90;;;;;;5040617;28;20105;-55
2023/07/07 13:38:12;;;;;;;5.43;3.83;;;30.50;54.30;;;;;;5038881;28;20563;-54
2023/07/07 13:41:01;;;;;;;4.85;3.63;;;30.60;54.50;;;;;;5040612;28;20027;-58
2023/07/07 13:43:51;;;;;;;6.55;3.88;;;30.60;52.90;;;;;;5042452;28;20541;-53
2023/07/07 13:46:37;;;;;;;4.00;3.42;;;30.50;52.80;;;;;;5039339;28;20112;-53
2023/07/07 13:49:23;;;;;;;7.10;3.65;;;30.30;52.90;;;;;;5037440;28;20029;-54
2023/07/07 13:52:20;;;;;;;6.40;4.05;;;30.40;53.20;;;;;;5036697;28;20059;-55
2023/07/07 13:55:11;;;;;;;6.55;3.90;;;30.50;52.90;;;;;;5033767;28;20536;-55
2023/07/07 13:57:58;;;;;;;6.10;3.85;;;30.50;52.80;;;;;;5035620;28;20072;-58
2023/07/07 14:00:52;;;;;;;6.68;3.70;;;30.70;53.20;;;;;;5034213;28;20029;-55
2023/07/07 14:03:44;;;;;;;6.47;4.22;;;30.80;53.00;;;;;;5036309;28;20033;-54
2023/07/07 14:06:32;;;;;;;6.00;4.18;;;30.80;52.90;;;;;;5040729;28;20037;-57
2023/07/07 14:09:37;;;;;;;5.95;3.38;;;30.60;52.70;;;;;;5038857;28;20034;-54
2023/07/07 14:12:26;;;;;;;6.28;4.30;;;30.70;53.10;;;;;;5034371;28;20032;-54
2023/07/07 14:15:12;;;;;;;5.50;4.43;;;31.20;53.00;;;;;;5034194;28;20022;-56
2023/07/07 14:18:04;;;;;;;6.03;4.10;;;31.50;53.80;;;;;;5033029;28;20037;-57
2023/07/07 14:20:52;;;;;;;4.97;3.60;;;31.80;53.80;;;;;;5034305;28;20022;-56
2023/07/07 14:23:40;;;;;;;7.93;4.43;;;32.10;53.30;;;;;;5035222;28;20033;-55
2023/07/07 14:26:28;;;;;;;6.40;3.72;;;31.90;52.80;;;;;;5033486;28;20022;-53
2023/07/07 14:29:29;;;;;;;5.20;4.07;;;31.60;52.30;;;;;;5034110;28;20450;-55
2023/07/07 14:32:25;;;;;;;9.32;5.18;;;31.50;53.00;;;;;;5033866;28;20057;-55
2023/07/07 14:35:20;;;;;;;9.05;5.93;;;31.70;53.30;;;;;;5034624;28;20037;-55
2023/07/07 14:38:22;;;;;;;6.88;4.20;;;32.00;53.50;;;;;;5035008;28;20088;-57
2023/07/07 14:41:11;;;;;;;7.32;4.03;;;32.50;53.20;;;;;;5034861;28;20030;-56
2023/07/07 14:43:57;;;;;;;6.63;4.05;;;32.80;52.70;;;;;;5033707;28;20036;-57
2023/07/07 14:46:43;;;;;;;5.22;3.92;;;32.90;52.70;;;;;;5034492;28;20040;-55